sensor_id;sensor_type;location;lat;lon;timestamp;pressure;altitude;pressure_sealevel;temperature;humidity
42125;BME280;27787;44.594;11.046;2023-12-20T00:00:36;101200.59;;;6.12;85.58
42125;BME280;27787;44.594;11.046;2023-12-20T00:03:21;101196.13;;;6.10;86.26
42125;BME280;27787;44.594;11.046;2023-12-20T00:06:05;101189.97;;;6.09;86.07
42125;BME280;27787;44.594;11.046;2023-12-20T00:08:49;101189.91;;;6.06;85.62
42125;BME280;27787;44.594;11.046;2023-12-20T00:11:33;101188.88;;;6.01;85.61
42125;BME280;27787;44.594;11.046;2023-12-20T00:14:17;101186.97;;;5.97;86.32
42125;BME280;27787;44.594;11.046;2023-12-20T00:17:01;101182.56;;;5.96;87.05
42125;BME280;27787;44.594;11.046;2023-12-20T00:19:45;101171.19;;;5.96;86.81
42125;BME280;27787;44.594;11.046;2023-12-20T00:22:30;101165.88;;;5.93;86.71
42125;BME280;27787;44.594;11.046;2023-12-20T00:25:14;101171.06;;;5.91;86.75
42125;BME280;27787;44.594;11.046;2023-12-20T00:27:59;101173.59;;;5.89;86.76
42125;BME280;27787;44.594;11.046;2023-12-20T00:30:43;101163.91;;;5.87;87.23
42125;BME280;27787;44.594;11.046;2023-12-20T00:33:27;101171.56;;;5.81;87.47
42125;BME280;27787;44.594;11.046;2023-12-20T00:36:11;101168.19;;;5.85;87.54
42125;BME280;27787;44.594;11.046;2023-12-20T00:38:55;101165.03;;;5.94;87.10
42125;BME280;27787;44.594;11.046;2023-12-20T00:41:39;101152.91;;;5.97;86.72
42125;BME280;27787;44.594;11.046;2023-12-20T00:44:24;101149.25;;;5.92;86.45
42125;BME280;27787;44.594;11.046;2023-12-20T00:47:08;101145.38;;;5.81;86.44
42125;BME280;27787;44.594;11.046;2023-12-20T00:49:52;101145.94;;;5.72;86.70
42125;BME280;27787;44.594;11.046;2023-12-20T00:52:36;101135.19;;;5.63;87.08
42125;BME280;27787;44.594;11.046;2023-12-20T00:55:20;101127.06;;;5.55;87.35
42125;BME280;27787;44.594;11.046;2023-12-20T00:58:04;101123.31;;;5.47;87.24
42125;BME280;27787;44.594;11.046;2023-12-20T01:00:48;101122.25;;;5.42;87.56
42125;BME280;27787;44.594;11.046;2023-12-20T01:03:32;101109.06;;;5.39;87.92
42125;BME280;27787;44.594;11.046;2023-12-20T01:06:17;101110.94;;;5.43;88.37
42125;BME280;27787;44.594;11.046;2023-12-20T01:09:01;101106.81;;;5.50;88.70
42125;BME280;27787;44.594;11.046;2023-12-20T01:11:45;101103.44;;;5.54;88.59
42125;BME280;27787;44.594;11.046;2023-12-20T01:14:30;101098.31;;;5.57;88.56
42125;BME280;27787;44.594;11.046;2023-12-20T01:17:14;101095.00;;;5.62;88.52
42125;BME280;27787;44.594;11.046;2023-12-20T01:19:58;101084.63;;;5.66;88.43
42125;BME280;27787;44.594;11.046;2023-12-20T01:22:42;101089.91;;;5.67;87.79
42125;BME280;27787;44.594;11.046;2023-12-20T01:25:27;101083.19;;;5.75;88.15
42125;BME280;27787;44.594;11.046;2023-12-20T01:28:11;101082.59;;;5.84;87.61
42125;BME280;27787;44.594;11.046;2023-12-20T01:30:55;101077.25;;;5.81;86.29
42125;BME280;27787;44.594;11.046;2023-12-20T01:33:39;101075.38;;;5.77;86.31
42125;BME280;27787;44.594;11.046;2023-12-20T01:36:23;101069.19;;;5.73;86.20
42125;BME280;27787;44.594;11.046;2023-12-20T01:39:07;101061.19;;;5.70;86.40
42125;BME280;27787;44.594;11.046;2023-12-20T01:41:51;101062.00;;;5.68;86.22
42125;BME280;27787;44.594;11.046;2023-12-20T01:44:36;101062.19;;;5.74;86.93
42125;BME280;27787;44.594;11.046;2023-12-20T01:47:20;101050.19;;;5.80;86.51
42125;BME280;27787;44.594;11.046;2023-12-20T01:50:05;101047.16;;;5.68;85.19
42125;BME280;27787;44.594;11.046;2023-12-20T01:52:52;101048.50;;;5.55;85.03
42125;BME280;27787;44.594;11.046;2023-12-20T01:55:40;101044.41;;;5.37;84.94
42125;BME280;27787;44.594;11.046;2023-12-20T01:58:25;101048.03;;;5.15;85.07
42125;BME280;27787;44.594;11.046;2023-12-20T02:01:11;101045.78;;;5.00;86.10
42125;BME280;27787;44.594;11.046;2023-12-20T02:03:56;101029.69;;;4.88;86.93
42125;BME280;27787;44.594;11.046;2023-12-20T02:06:40;101036.59;;;4.86;88.25
42125;BME280;27787;44.594;11.046;2023-12-20T02:09:24;101031.31;;;4.84;88.46
42125;BME280;27787;44.594;11.046;2023-12-20T02:12:08;101028.00;;;4.90;89.05
42125;BME280;27787;44.594;11.046;2023-12-20T02:14:53;101023.59;;;4.89;88.42
42125;BME280;27787;44.594;11.046;2023-12-20T02:17:38;101023.59;;;4.89;88.34
42125;BME280;27787;44.594;11.046;2023-12-20T02:20:23;101017.44;;;4.87;88.65
42125;BME280;27787;44.594;11.046;2023-12-20T02:23:07;101005.25;;;4.87;89.03
42125;BME280;27787;44.594;11.046;2023-12-20T02:25:51;101005.56;;;4.96;89.56
42125;BME280;27787;44.594;11.046;2023-12-20T02:28:35;101005.19;;;5.11;89.58
42125;BME280;27787;44.594;11.046;2023-12-20T02:31:23;100998.59;;;5.22;88.70
42125;BME280;27787;44.594;11.046;2023-12-20T02:34:07;101002.97;;;5.23;87.47
42125;BME280;27787;44.594;11.046;2023-12-20T02:36:51;100996.94;;;5.26;87.17
42125;BME280;27787;44.594;11.046;2023-12-20T02:39:35;100995.22;;;5.26;87.98
42125;BME280;27787;44.594;11.046;2023-12-20T02:42:19;100990.16;;;5.32;88.49
42125;BME280;27787;44.594;11.046;2023-12-20T02:45:04;100991.50;;;5.47;88.93
42125;BME280;27787;44.594;11.046;2023-12-20T02:47:48;100990.84;;;5.54;88.17
42125;BME280;27787;44.594;11.046;2023-12-20T02:50:32;100997.13;;;5.59;87.43
42125;BME280;27787;44.594;11.046;2023-12-20T02:53:16;100992.63;;;5.55;86.97
42125;BME280;27787;44.594;11.046;2023-12-20T02:56:00;100982.06;;;5.52;87.00
42125;BME280;27787;44.594;11.046;2023-12-20T02:58:45;100987.22;;;5.49;87.43
42125;BME280;27787;44.594;11.046;2023-12-20T03:01:29;100989.88;;;5.50;87.73
42125;BME280;27787;44.594;11.046;2023-12-20T03:04:13;100989.97;;;5.53;87.59
42125;BME280;27787;44.594;11.046;2023-12-20T03:06:58;100983.09;;;5.57;87.84
42125;BME280;27787;44.594;11.046;2023-12-20T03:09:42;100988.09;;;5.49;87.22
42125;BME280;27787;44.594;11.046;2023-12-20T03:12:26;100981.59;;;5.37;87.15
42125;BME280;27787;44.594;11.046;2023-12-20T03:15:10;100983.59;;;5.18;86.02
42125;BME280;27787;44.594;11.046;2023-12-20T03:17:55;100998.84;;;5.04;86.31
42125;BME280;27787;44.594;11.046;2023-12-20T03:20:39;101005.75;;;5.02;86.60
42125;BME280;27787;44.594;11.046;2023-12-20T03:23:25;101007.34;;;4.97;86.42
42125;BME280;27787;44.594;11.046;2023-12-20T03:26:10;101008.25;;;4.98;86.22
42125;BME280;27787;44.594;11.046;2023-12-20T03:28:54;100998.63;;;4.97;86.30
42125;BME280;27787;44.594;11.046;2023-12-20T03:31:38;100996.00;;;4.97;87.12
42125;BME280;27787;44.594;11.046;2023-12-20T03:34:22;100989.00;;;4.96;86.83
42125;BME280;27787;44.594;11.046;2023-12-20T03:37:06;100991.75;;;5.00;87.03
42125;BME280;27787;44.594;11.046;2023-12-20T03:39:50;100999.69;;;5.03;86.95
42125;BME280;27787;44.594;11.046;2023-12-20T03:42:34;100991.09;;;5.08;87.23
42125;BME280;27787;44.594;11.046;2023-12-20T03:45:18;100993.00;;;5.12;87.67
42125;BME280;27787;44.594;11.046;2023-12-20T03:48:02;100990.53;;;5.16;87.53
42125;BME280;27787;44.594;11.046;2023-12-20T03:50:46;100989.84;;;5.22;86.80
42125;BME280;27787;44.594;11.046;2023-12-20T03:53:31;100983.59;;;5.18;86.42
42125;BME280;27787;44.594;11.046;2023-12-20T03:56:15;100981.88;;;5.19;86.11
42125;BME280;27787;44.594;11.046;2023-12-20T03:58:59;100980.28;;;5.22;86.57
42125;BME280;27787;44.594;11.046;2023-12-20T04:01:43;100977.66;;;5.22;86.01
42125;BME280;27787;44.594;11.046;2023-12-20T04:04:31;100968.78;;;5.19;85.40
42125;BME280;27787;44.594;11.046;2023-12-20T04:07:15;100964.25;;;5.13;85.04
42125;BME280;27787;44.594;11.046;2023-12-20T04:09:59;100954.28;;;5.01;85.28
42125;BME280;27787;44.594;11.046;2023-12-20T04:12:43;100944.56;;;4.97;86.00
42125;BME280;27787;44.594;11.046;2023-12-20T04:15:27;100949.81;;;4.97;86.13
42125;BME280;27787;44.594;11.046;2023-12-20T04:18:12;100940.19;;;4.96;86.06
42125;BME280;27787;44.594;11.046;2023-12-20T04:20:56;100933.25;;;4.98;85.47
42125;BME280;27787;44.594;11.046;2023-12-20T04:23:39;100928.22;;;5.04;85.53
42125;BME280;27787;44.594;11.046;2023-12-20T04:26:23;100917.06;;;5.10;85.42
42125;BME280;27787;44.594;11.046;2023-12-20T04:29:07;100919.81;;;5.15;85.28
42125;BME280;27787;44.594;11.046;2023-12-20T04:31:51;100906.78;;;5.16;85.54
42125;BME280;27787;44.594;11.046;2023-12-20T04:34:36;100905.16;;;5.20;85.36
42125;BME280;27787;44.594;11.046;2023-12-20T04:37:20;100901.59;;;5.18;84.85
42125;BME280;27787;44.594;11.046;2023-12-20T04:40:04;100885.63;;;5.09;85.22
42125;BME280;27787;44.594;11.046;2023-12-20T04:42:49;100877.50;;;4.99;85.58
42125;BME280;27787;44.594;11.046;2023-12-20T04:45:33;100867.66;;;4.92;86.47
42125;BME280;27787;44.594;11.046;2023-12-20T04:48:17;100863.19;;;4.88;87.08
42125;BME280;27787;44.594;11.046;2023-12-20T04:51:01;100855.28;;;4.87;87.06
42125;BME280;27787;44.594;11.046;2023-12-20T04:53:45;100856.97;;;4.85;87.30
42125;BME280;27787;44.594;11.046;2023-12-20T04:56:30;100848.25;;;4.84;87.27
42125;BME280;27787;44.594;11.046;2023-12-20T04:59:14;100855.19;;;4.84;87.75
42125;BME280;27787;44.594;11.046;2023-12-20T05:01:59;100870.09;;;4.86;87.63
42125;BME280;27787;44.594;11.046;2023-12-20T05:04:43;100872.84;;;4.91;87.91
42125;BME280;27787;44.594;11.046;2023-12-20T05:07:27;100878.25;;;4.95;87.77
42125;BME280;27787;44.594;11.046;2023-12-20T05:10:11;100887.16;;;5.02;87.65
42125;BME280;27787;44.594;11.046;2023-12-20T05:12:56;100881.28;;;5.09;87.51
42125;BME280;27787;44.594;11.046;2023-12-20T05:15:39;100883.31;;;5.19;87.07
42125;BME280;27787;44.594;11.046;2023-12-20T05:18:24;100879.34;;;5.32;86.35
42125;BME280;27787;44.594;11.046;2023-12-20T05:21:08;100877.25;;;5.49;86.28
42125;BME280;27787;44.594;11.046;2023-12-20T05:23:52;100873.41;;;5.66;85.99
42125;BME280;27787;44.594;11.046;2023-12-20T05:26:36;100874.19;;;5.63;84.77
42125;BME280;27787;44.594;11.046;2023-12-20T05:29:20;100867.88;;;5.57;84.47
42125;BME280;27787;44.594;11.046;2023-12-20T05:32:05;100868.41;;;5.45;84.96
42125;BME280;27787;44.594;11.046;2023-12-20T05:34:49;100870.91;;;5.41;85.72
42125;BME280;27787;44.594;11.046;2023-12-20T05:37:33;100883.94;;;5.39;86.04
42125;BME280;27787;44.594;11.046;2023-12-20T05:40:17;100880.19;;;5.31;86.61
42125;BME280;27787;44.594;11.046;2023-12-20T05:43:01;100880.31;;;5.34;86.72
42125;BME280;27787;44.594;11.046;2023-12-20T05:45:46;100888.09;;;5.32;86.67
42125;BME280;27787;44.594;11.046;2023-12-20T05:48:30;100906.19;;;5.25;86.38
42125;BME280;27787;44.594;11.046;2023-12-20T05:51:14;100899.44;;;5.04;86.25
42125;BME280;27787;44.594;11.046;2023-12-20T05:53:59;100892.00;;;4.90;86.58
42125;BME280;27787;44.594;11.046;2023-12-20T05:56:43;100889.69;;;4.72;87.23
42125;BME280;27787;44.594;11.046;2023-12-20T05:59:27;100890.53;;;4.71;87.95
42125;BME280;27787;44.594;11.046;2023-12-20T06:02:11;100894.25;;;4.79;88.83
42125;BME280;27787;44.594;11.046;2023-12-20T06:04:55;100884.94;;;4.87;89.26
42125;BME280;27787;44.594;11.046;2023-12-20T06:07:38;100882.72;;;4.99;88.89
42125;BME280;27787;44.594;11.046;2023-12-20T06:10:22;100877.91;;;5.13;88.14
42125;BME280;27787;44.594;11.046;2023-12-20T06:13:07;100888.81;;;5.27;86.72
42125;BME280;27787;44.594;11.046;2023-12-20T06:15:51;100910.72;;;5.30;85.86
42125;BME280;27787;44.594;11.046;2023-12-20T06:18:36;100904.63;;;5.31;85.33
42125;BME280;27787;44.594;11.046;2023-12-20T06:21:20;100903.72;;;5.29;85.29
42125;BME280;27787;44.594;11.046;2023-12-20T06:24:05;100897.41;;;5.23;84.58
42125;BME280;27787;44.594;11.046;2023-12-20T06:26:49;100880.31;;;5.07;83.96
42125;BME280;27787;44.594;11.046;2023-12-20T06:29:33;100870.28;;;4.92;83.99
42125;BME280;27787;44.594;11.046;2023-12-20T06:32:18;100870.75;;;4.81;84.85
42125;BME280;27787;44.594;11.046;2023-12-20T06:35:03;100882.69;;;4.71;85.34
42125;BME280;27787;44.594;11.046;2023-12-20T06:37:48;100874.72;;;4.68;85.72
42125;BME280;27787;44.594;11.046;2023-12-20T06:40:32;100862.47;;;4.67;86.17
42125;BME280;27787;44.594;11.046;2023-12-20T06:43:16;100858.97;;;4.66;86.20
42125;BME280;27787;44.594;11.046;2023-12-20T06:46:00;100849.41;;;4.67;86.67
42125;BME280;27787;44.594;11.046;2023-12-20T06:48:44;100862.78;;;4.76;86.40
42125;BME280;27787;44.594;11.046;2023-12-20T06:51:28;100876.16;;;4.85;86.77
42125;BME280;27787;44.594;11.046;2023-12-20T06:54:12;100877.84;;;4.83;86.07
42125;BME280;27787;44.594;11.046;2023-12-20T06:56:56;100874.22;;;4.80;86.29
42125;BME280;27787;44.594;11.046;2023-12-20T06:59:40;100875.22;;;4.83;86.46
42125;BME280;27787;44.594;11.046;2023-12-20T07:02:25;100861.50;;;4.90;86.56
42125;BME280;27787;44.594;11.046;2023-12-20T07:05:09;100869.72;;;5.02;85.97
42125;BME280;27787;44.594;11.046;2023-12-20T07:07:53;100886.66;;;5.14;85.89
42125;BME280;27787;44.594;11.046;2023-12-20T07:10:37;100874.59;;;5.19;85.50
42125;BME280;27787;44.594;11.046;2023-12-20T07:13:21;100864.41;;;5.28;85.14
42125;BME280;27787;44.594;11.046;2023-12-20T07:16:06;100860.25;;;5.35;84.86
42125;BME280;27787;44.594;11.046;2023-12-20T07:18:50;100860.16;;;5.31;84.85
42125;BME280;27787;44.594;11.046;2023-12-20T07:21:36;100868.69;;;5.24;85.42
42125;BME280;27787;44.594;11.046;2023-12-20T07:24:20;100854.69;;;5.24;85.94
42125;BME280;27787;44.594;11.046;2023-12-20T07:27:04;100850.44;;;5.27;86.08
42125;BME280;27787;44.594;11.046;2023-12-20T07:29:48;100861.03;;;5.32;86.16
42125;BME280;27787;44.594;11.046;2023-12-20T07:32:32;100859.47;;;5.37;86.13
42125;BME280;27787;44.594;11.046;2023-12-20T07:35:16;100873.66;;;5.45;85.87
42125;BME280;27787;44.594;11.046;2023-12-20T07:38:00;100869.56;;;5.55;85.88
42125;BME280;27787;44.594;11.046;2023-12-20T07:40:44;100881.16;;;5.63;85.54
42125;BME280;27787;44.594;11.046;2023-12-20T07:43:28;100891.84;;;5.71;85.04
42125;BME280;27787;44.594;11.046;2023-12-20T07:46:13;100883.50;;;5.84;85.09
42125;BME280;27787;44.594;11.046;2023-12-20T07:48:57;100882.25;;;6.00;84.59
42125;BME280;27787;44.594;11.046;2023-12-20T07:51:41;100884.25;;;6.10;83.75
42125;BME280;27787;44.594;11.046;2023-12-20T07:54:25;100886.88;;;6.10;83.17
42125;BME280;27787;44.594;11.046;2023-12-20T07:57:10;100891.41;;;6.15;83.09
42125;BME280;27787;44.594;11.046;2023-12-20T07:59:54;100885.47;;;6.22;82.67
42125;BME280;27787;44.594;11.046;2023-12-20T08:02:39;100909.25;;;6.29;82.27
42125;BME280;27787;44.594;11.046;2023-12-20T08:05:23;100902.34;;;6.32;81.80
42125;BME280;27787;44.594;11.046;2023-12-20T08:08:07;100913.72;;;6.33;81.42
42125;BME280;27787;44.594;11.046;2023-12-20T08:10:51;100924.00;;;6.25;81.41
42125;BME280;27787;44.594;11.046;2023-12-20T08:13:35;100913.38;;;6.20;82.43
42125;BME280;27787;44.594;11.046;2023-12-20T08:16:19;100914.22;;;6.19;82.83
42125;BME280;27787;44.594;11.046;2023-12-20T08:19:04;100926.50;;;6.20;82.99
42125;BME280;27787;44.594;11.046;2023-12-20T08:21:48;100926.56;;;6.24;83.20
42125;BME280;27787;44.594;11.046;2023-12-20T08:24:31;100930.97;;;6.25;82.65
42125;BME280;27787;44.594;11.046;2023-12-20T08:27:15;100932.66;;;6.22;82.58
42125;BME280;27787;44.594;11.046;2023-12-20T08:29:59;100926.50;;;6.20;82.82
42125;BME280;27787;44.594;11.046;2023-12-20T08:32:43;100935.19;;;6.19;82.97
42125;BME280;27787;44.594;11.046;2023-12-20T08:35:28;100940.47;;;6.21;82.72
42125;BME280;27787;44.594;11.046;2023-12-20T08:38:12;100946.56;;;6.20;82.56
42125;BME280;27787;44.594;11.046;2023-12-20T08:40:55;100940.44;;;6.19;82.55
42125;BME280;27787;44.594;11.046;2023-12-20T08:43:39;100937.75;;;6.16;83.19
42125;BME280;27787;44.594;11.046;2023-12-20T08:46:26;100926.41;;;6.17;83.65
42125;BME280;27787;44.594;11.046;2023-12-20T08:49:11;100911.59;;;6.19;83.73
42125;BME280;27787;44.594;11.046;2023-12-20T08:51:55;100917.06;;;6.27;83.30
42125;BME280;27787;44.594;11.046;2023-12-20T08:54:39;100905.84;;;6.33;83.12
42125;BME280;27787;44.594;11.046;2023-12-20T08:57:23;100904.13;;;6.33;83.23
42125;BME280;27787;44.594;11.046;2023-12-20T09:00:08;100911.84;;;6.27;83.60
42125;BME280;27787;44.594;11.046;2023-12-20T09:02:53;100921.44;;;6.27;84.20
42125;BME280;27787;44.594;11.046;2023-12-20T09:05:38;100929.34;;;6.28;84.86
42125;BME280;27787;44.594;11.046;2023-12-20T09:08:22;100946.88;;;6.31;85.34
42125;BME280;27787;44.594;11.046;2023-12-20T09:11:07;100940.78;;;6.32;86.35
42125;BME280;27787;44.594;11.046;2023-12-20T09:13:51;100940.94;;;6.38;87.10
42125;BME280;27787;44.594;11.046;2023-12-20T09:16:35;100940.25;;;6.45;87.40
42125;BME280;27787;44.594;11.046;2023-12-20T09:19:19;100931.78;;;6.54;87.54
42125;BME280;27787;44.594;11.046;2023-12-20T09:22:04;100938.03;;;6.60;87.56
42125;BME280;27787;44.594;11.046;2023-12-20T09:24:48;100943.50;;;6.68;87.26
42125;BME280;27787;44.594;11.046;2023-12-20T09:27:32;100933.13;;;6.72;87.36
42125;BME280;27787;44.594;11.046;2023-12-20T09:30:16;100933.22;;;6.77;87.53
42125;BME280;27787;44.594;11.046;2023-12-20T09:33:00;100936.06;;;6.85;87.74
42125;BME280;27787;44.594;11.046;2023-12-20T09:35:44;100944.09;;;6.91;87.18
42125;BME280;27787;44.594;11.046;2023-12-20T09:38:28;100941.53;;;6.94;87.47
42125;BME280;27787;44.594;11.046;2023-12-20T09:41:13;100930.19;;;6.95;86.47
42125;BME280;27787;44.594;11.046;2023-12-20T09:44:02;100936.41;;;6.98;86.41
42125;BME280;27787;44.594;11.046;2023-12-20T09:46:49;100935.72;;;7.05;86.30
42125;BME280;27787;44.594;11.046;2023-12-20T09:49:35;100940.16;;;7.09;85.42
42125;BME280;27787;44.594;11.046;2023-12-20T09:52:21;100921.94;;;7.16;84.33
42125;BME280;27787;44.594;11.046;2023-12-20T09:55:06;100911.56;;;7.20;83.71
42125;BME280;27787;44.594;11.046;2023-12-20T09:57:51;100909.03;;;7.25;83.09
42125;BME280;27787;44.594;11.046;2023-12-20T10:00:35;100903.84;;;7.28;83.26
42125;BME280;27787;44.594;11.046;2023-12-20T10:03:24;100895.25;;;7.35;83.93
42125;BME280;27787;44.594;11.046;2023-12-20T10:06:09;100893.59;;;7.40;84.02
42125;BME280;27787;44.594;11.046;2023-12-20T10:08:54;100882.34;;;7.44;84.20
42125;BME280;27787;44.594;11.046;2023-12-20T10:11:39;100871.94;;;7.49;84.33
42125;BME280;27787;44.594;11.046;2023-12-20T10:14:23;100870.28;;;7.54;84.25
42125;BME280;27787;44.594;11.046;2023-12-20T10:17:07;100855.50;;;7.59;84.39
42125;BME280;27787;44.594;11.046;2023-12-20T10:19:52;100855.59;;;7.63;84.00
42125;BME280;27787;44.594;11.046;2023-12-20T10:22:36;100845.97;;;7.64;83.39
42125;BME280;27787;44.594;11.046;2023-12-20T10:25:21;100833.75;;;7.66;83.39
42125;BME280;27787;44.594;11.046;2023-12-20T10:28:13;100829.41;;;7.68;83.16
42125;BME280;27787;44.594;11.046;2023-12-20T10:30:57;100832.97;;;7.70;82.84
42125;BME280;27787;44.594;11.046;2023-12-20T10:33:41;100823.38;;;7.72;82.98
42125;BME280;27787;44.594;11.046;2023-12-20T10:36:26;100816.44;;;7.76;83.09
42125;BME280;27787;44.594;11.046;2023-12-20T10:39:11;100816.59;;;7.83;83.09
42125;BME280;27787;44.594;11.046;2023-12-20T10:41:57;100809.72;;;7.91;83.18
42125;BME280;27787;44.594;11.046;2023-12-20T10:44:42;100802.84;;;7.96;83.38
42125;BME280;27787;44.594;11.046;2023-12-20T10:47:27;100799.41;;;8.02;83.66
42125;BME280;27787;44.594;11.046;2023-12-20T10:50:12;100789.06;;;8.10;83.81
42125;BME280;27787;44.594;11.046;2023-12-20T10:52:57;100782.13;;;8.15;83.58
42125;BME280;27787;44.594;11.046;2023-12-20T10:55:42;100778.66;;;8.19;83.12
42125;BME280;27787;44.594;11.046;2023-12-20T10:58:28;100790.16;;;8.24;83.90
42125;BME280;27787;44.594;11.046;2023-12-20T11:01:14;100785.00;;;8.30;84.25
42125;BME280;27787;44.594;11.046;2023-12-20T11:03:59;100791.22;;;8.34;83.87
42125;BME280;27787;44.594;11.046;2023-12-20T11:06:58;100786.94;;;8.39;84.06
42125;BME280;27787;44.594;11.046;2023-12-20T11:09:59;100787.00;;;8.43;83.95
42125;BME280;27787;44.594;11.046;2023-12-20T11:16:13;100788.84;;;8.47;84.22
42125;BME280;27787;44.594;11.046;2023-12-20T11:19:05;100783.63;;;8.49;84.04
42125;BME280;27787;44.594;11.046;2023-12-20T11:21:50;100782.72;;;8.48;83.48
42125;BME280;27787;44.594;11.046;2023-12-20T11:24:34;100781.88;;;8.49;83.93
42125;BME280;27787;44.594;11.046;2023-12-20T11:27:21;100773.94;;;8.46;84.71
42125;BME280;27787;44.594;11.046;2023-12-20T11:30:08;100767.69;;;8.41;84.38
42125;BME280;27787;44.594;11.046;2023-12-20T11:32:55;100772.91;;;8.38;84.53
42125;BME280;27787;44.594;11.046;2023-12-20T11:35:39;100776.28;;;8.33;84.10
42125;BME280;27787;44.594;11.046;2023-12-20T11:38:23;100777.06;;;8.27;84.81
42125;BME280;27787;44.594;11.046;2023-12-20T11:41:08;100765.59;;;8.22;84.76
42125;BME280;27787;44.594;11.046;2023-12-20T11:43:55;100748.09;;;8.22;84.81
42125;BME280;27787;44.594;11.046;2023-12-20T11:46:40;100746.34;;;8.23;84.78
42125;BME280;27787;44.594;11.046;2023-12-20T11:49:24;100754.28;;;8.27;84.96
42125;BME280;27787;44.594;11.046;2023-12-20T11:52:14;100746.47;;;8.32;84.91
42125;BME280;27787;44.594;11.046;2023-12-20T11:54:59;100751.81;;;8.35;84.17
42125;BME280;27787;44.594;11.046;2023-12-20T11:57:43;100748.34;;;8.38;84.28
42125;BME280;27787;44.594;11.046;2023-12-20T12:00:28;100738.81;;;8.44;84.12
42125;BME280;27787;44.594;11.046;2023-12-20T12:03:14;100732.78;;;8.50;84.14
42125;BME280;27787;44.594;11.046;2023-12-20T12:05:59;100742.47;;;8.55;83.95
42125;BME280;27787;44.594;11.046;2023-12-20T12:08:44;100747.78;;;8.58;83.97
42125;BME280;27787;44.594;11.046;2023-12-20T12:11:28;100742.59;;;8.62;84.05
42125;BME280;27787;44.594;11.046;2023-12-20T12:14:13;100736.50;;;8.66;83.70
42125;BME280;27787;44.594;11.046;2023-12-20T12:16:57;100724.25;;;8.69;83.54
42125;BME280;27787;44.594;11.046;2023-12-20T12:19:42;100735.75;;;8.74;83.97
42125;BME280;27787;44.594;11.046;2023-12-20T12:22:27;100734.06;;;8.78;83.69
42125;BME280;27787;44.594;11.046;2023-12-20T12:25:12;100733.19;;;8.80;83.80
42125;BME280;27787;44.594;11.046;2023-12-20T12:27:58;100729.69;;;8.80;83.36
42125;BME280;27787;44.594;11.046;2023-12-20T12:30:56;100732.31;;;8.80;82.59
42125;BME280;27787;44.594;11.046;2023-12-20T12:33:40;100735.81;;;8.79;82.20
42125;BME280;27787;44.594;11.046;2023-12-20T12:36:24;100733.16;;;8.76;82.43
42125;BME280;27787;44.594;11.046;2023-12-20T12:39:09;100728.78;;;8.76;82.78
42125;BME280;27787;44.594;11.046;2023-12-20T12:41:56;100719.09;;;8.75;83.18
42125;BME280;27787;44.594;11.046;2023-12-20T12:44:41;100723.50;;;8.75;83.55
42125;BME280;27787;44.594;11.046;2023-12-20T12:47:25;100713.84;;;8.77;83.85
42125;BME280;27787;44.594;11.046;2023-12-20T12:50:09;100713.00;;;8.78;84.32
42125;BME280;27787;44.594;11.046;2023-12-20T12:52:53;100716.53;;;8.80;84.27
42125;BME280;27787;44.594;11.046;2023-12-20T12:55:37;100713.06;;;8.84;84.27
42125;BME280;27787;44.594;11.046;2023-12-20T12:58:21;100714.00;;;8.88;83.73
42125;BME280;27787;44.594;11.046;2023-12-20T13:01:06;100711.41;;;8.89;83.66
42125;BME280;27787;44.594;11.046;2023-12-20T13:03:50;100714.03;;;8.89;83.57
42125;BME280;27787;44.594;11.046;2023-12-20T13:06:33;100709.63;;;8.88;83.92
42125;BME280;27787;44.594;11.046;2023-12-20T13:09:17;100712.25;;;8.86;84.76
42125;BME280;27787;44.594;11.046;2023-12-20T13:12:03;100708.72;;;8.86;85.69
42125;BME280;27787;44.594;11.046;2023-12-20T13:14:48;100705.16;;;8.84;86.54
42125;BME280;27787;44.594;11.046;2023-12-20T13:17:32;100695.47;;;8.80;87.05
42125;BME280;27787;44.594;11.046;2023-12-20T13:20:16;100695.41;;;8.74;87.52
42125;BME280;27787;44.594;11.046;2023-12-20T13:23:00;100686.53;;;8.69;88.37
42125;BME280;27787;44.594;11.046;2023-12-20T13:25:44;100690.91;;;8.67;88.78
42125;BME280;27787;44.594;11.046;2023-12-20T13:28:29;100685.56;;;8.61;89.37
42125;BME280;27787;44.594;11.046;2023-12-20T13:31:13;100689.91;;;8.58;89.64
42125;BME280;27787;44.594;11.046;2023-12-20T13:33:57;100677.59;;;8.56;89.62
42125;BME280;27787;44.594;11.046;2023-12-20T13:36:41;100679.34;;;8.55;89.85
42125;BME280;27787;44.594;11.046;2023-12-20T13:39:26;100674.09;;;8.55;89.44
42125;BME280;27787;44.594;11.046;2023-12-20T13:42:10;100678.47;;;8.56;89.40
42125;BME280;27787;44.594;11.046;2023-12-20T13:44:54;100679.38;;;8.58;89.01
42125;BME280;27787;44.594;11.046;2023-12-20T13:47:38;100686.38;;;8.56;88.92
42125;BME280;27787;44.594;11.046;2023-12-20T13:50:22;100699.53;;;8.58;88.67
42125;BME280;27787;44.594;11.046;2023-12-20T13:53:06;100698.63;;;8.54;88.30
42125;BME280;27787;44.594;11.046;2023-12-20T13:55:51;100699.47;;;8.52;88.35
42125;BME280;27787;44.594;11.046;2023-12-20T13:58:35;100700.28;;;8.48;88.31
42125;BME280;27787;44.594;11.046;2023-12-20T14:01:20;100712.47;;;8.43;87.93
42125;BME280;27787;44.594;11.046;2023-12-20T14:04:04;100701.00;;;8.38;88.19
42125;BME280;27787;44.594;11.046;2023-12-20T14:06:48;100694.84;;;8.34;88.43
42125;BME280;27787;44.594;11.046;2023-12-20T14:09:33;100688.66;;;8.34;88.27
42125;BME280;27787;44.594;11.046;2023-12-20T14:12:18;100680.81;;;8.35;88.17
42125;BME280;27787;44.594;11.046;2023-12-20T14:15:02;100694.88;;;8.37;87.96
42125;BME280;27787;44.594;11.046;2023-12-20T14:17:46;100687.03;;;8.40;87.66
42125;BME280;27787;44.594;11.046;2023-12-20T14:20:31;100685.28;;;8.41;87.43
42125;BME280;27787;44.594;11.046;2023-12-20T14:23:16;100687.06;;;8.43;87.26